EDT,Max TemperatureF,Mean TemperatureF,Min TemperatureF,Max Dew PointF,MeanDew PointF,Min DewpointF,Max Humidity, Mean Humidity, Min Humidity, Max Sea Level PressureIn, Mean Sea Level PressureIn, Min Sea Level PressureIn, Max VisibilityMiles, Mean VisibilityMiles, Min VisibilityMiles, Max Wind SpeedMPH, Mean Wind SpeedMPH, Max Gust SpeedMPH,PrecipitationIn, CloudCover, Events, WindDirDegrees
2012-10-1,64,48,33,54,44,34,100,83,45,29.97,29.92,29.87,10,7,0,8,1,,0.00,2,Fog,265
2012-10-2,68,57,46,54,50,44,97,81,49,29.95,29.91,29.85,10,10,10,10,2,,0.00,2,,60
2012-10-3,64,58,53,61,58,52,98,93,83,30.07,29.99,29.94,10,8,2,9,3,,0.00,8,Rain,180
2012-10-4,73,65,57,58,55,50,95,77,47,30.06,30.01,29.95,10,9,5,15,9,22,0.00,6,Rain,215
2012-10-5,61,53,45,60,43,37,96,71,50,30.03,29.97,29.90,10,10,7,18,11,25,0.00,5,Rain,244
2012-10-6,51,44,36,39,35,30,87,68,51,30.09,29.96,29.87,10,10,10,21,10,29,0.00,5,,272
2012-10-7,49,38,28,36,31,26,97,72,40,30.11,30.09,30.07,10,10,10,10,3,,0.00,4,,277
2012-10-8,54,41,28,34,30,26,93,66,34,30.17,30.12,30.08,10,10,10,14,6,22,0.00,1,,209
2012-10-9,61,51,41,36,33,30,65,51,35,30.09,29.95,29.77,10,10,10,24,14,31,0.00,1,,189
2012-10-10,53,44,34,41,36,28,97,75,53,30.10,29.88,29.73,10,10,7,26,14,36,0.00,6,Rain,263
2012-10-11,57,43,29,44,33,26,90,75,39,30.13,30.06,29.92,10,10,10,28,9,38,0.00,5,Rain,243
2012-10-12,48,38,28,37,30,21,92,72,34,30.44,30.35,30.14,10,10,10,14,5,17,0.00,3,,336
2012-10-13,54,40,26,54,37,24,99,86,77,30.39,30.15,29.83,10,9,2,21,6,25,0.00,5,Rain,168
2012-10-14,67,63,58,64,60,56,100,91,76,29.82,29.63,29.35,10,6,1,23,13,32,0.00,7,Rain,198
2012-10-15,57,50,43,56,42,34,97,84,70,29.91,29.69,29.36,10,10,5,23,16,34,0.00,8,Rain,287
2012-10-16,55,42,30,42,36,28,96,74,51,29.97,29.88,29.76,10,10,10,12,5,,0.00,1,Rain,206
2012-10-17,71,59,47,53,48,43,89,69,40,29.76,29.64,29.58,10,10,7,23,13,30,0.00,4,Rain,170
2012-10-18,62,56,49,55,47,37,94,76,53,29.67,29.53,29.41,10,10,2,21,13,38,0.00,5,Rain,164
2012-10-19,56,50,45,49,44,39,97,81,58,29.67,29.61,29.55,10,10,2,20,7,25,0.00,6,Rain,149
2012-10-20,51,48,44,49,46,43,100,97,89,29.86,29.67,29.58,10,7,2,12,4,,0.00,6,Rain,265
2012-10-21,58,48,37,49,43,37,100,88,58,30.08,30.01,29.86,10,7,0,15,7,21,0.00,4,Fog,260
2012-10-22,70,52,35,56,47,34,99,81,51,30.09,30.04,29.98,10,9,3,10,2,,0.00,2,Rain,161
2012-10-23,59,56,53,59,56,54,100,100,98,30.04,29.97,29.92,4,2,0,9,3,,0.00,8,Fog-Rain,94
2012-10-24,71,62,53,64,58,53,100,93,73,30.04,30.00,29.97,10,5,0,9,5,,0.00,6,Fog-Rain,142
2012-10-25,76,66,57,59,56,52,92,71,48,29.97,29.88,29.79,10,10,10,28,12,34,0.00,1,,179
2012-10-26,68,52,37,55,41,34,94,77,58,30.25,30.11,29.78,10,10,4,24,11,33,0.00,4,Rain,298
2012-10-27,46,41,36,39,35,31,91,75,64,30.25,30.22,30.19,10,10,10,14,7,20,0.00,4,,5
2012-10-28,47,43,39,37,32,28,86,67,51,30.24,30.20,30.14,10,10,10,21,11,30,0.00,7,Rain,10
2012-10-29,42,40,37,38,34,29,91,78,61,30.14,30.01,29.76,10,9,5,33,18,47,0.00,8,Rain,4
2012-10-30,42,40,37,41,39,35,99,96,90,29.75,29.53,29.47,10,4,1,33,25,45,0.00,8,Rain,359
2012-10-31,41,40,38,42,39,36,100,97,89,29.60,29.53,29.47,10,5,1,22,16,31,0.00,8,Rain,325